createdAt,value
2019-05-21T00:02:17.014Z,13.90
2019-05-21T00:04:47.031Z,13.60
2019-05-21T00:07:17.022Z,13.80
2019-05-21T00:09:47.164Z,13.80
2019-05-21T00:12:19.228Z,13.80
2019-05-21T00:14:49.740Z,13.70
2019-05-21T00:17:19.751Z,13.70
2019-05-21T00:19:50.204Z,13.70
2019-05-21T00:22:20.640Z,13.60
2019-05-21T00:24:51.320Z,13.60
2019-05-21T00:27:21.795Z,13.60
2019-05-21T00:30:27.678Z,13.50
2019-05-21T00:33:34.054Z,13.50
2019-05-21T00:36:41.369Z,13.50
2019-05-21T00:39:47.680Z,13.50
2019-05-21T00:42:29.910Z,13.50
2019-05-21T00:45:00.977Z,13.50
2019-05-21T00:47:31.346Z,13.50
2019-05-21T00:50:01.565Z,13.50
2019-05-21T00:52:32.011Z,13.50
2019-05-21T00:55:02.021Z,13.50
2019-05-21T00:57:34.054Z,13.50
2019-05-21T01:00:04.759Z,13.50
2019-05-21T01:02:36.272Z,13.50
2019-05-21T01:05:06.430Z,13.50
2019-05-21T01:07:37.048Z,13.50
2019-05-21T01:10:07.361Z,13.50
2019-05-21T01:12:37.849Z,13.50
2019-05-21T01:15:08.299Z,13.50
2019-05-21T01:17:38.762Z,13.50
2019-05-21T01:20:09.023Z,13.50
2019-05-21T01:22:39.496Z,13.50
2019-05-21T01:25:09.722Z,13.50
2019-05-21T01:27:39.804Z,13.50
2019-05-21T01:30:10.006Z,13.50
2019-05-21T01:32:40.540Z,13.50
2019-05-21T01:35:17.213Z,13.50
2019-05-21T01:37:42.308Z,13.50
2019-05-21T01:40:12.430Z,13.50
2019-05-21T01:42:42.438Z,13.50
2019-05-21T01:45:12.487Z,13.50
2019-05-21T01:47:42.669Z,13.50
2019-05-21T01:50:12.782Z,13.50
2019-05-21T01:52:42.890Z,13.50
2019-05-21T01:55:13.979Z,13.50
2019-05-21T01:57:44.089Z,13.50
2019-05-21T02:00:14.271Z,13.60
2019-05-21T02:02:44.585Z,13.50
2019-05-21T02:05:14.600Z,13.50
2019-05-21T02:07:46.383Z,13.60
2019-05-21T02:10:16.479Z,13.60
2019-05-21T02:12:47.484Z,13.50
2019-05-21T02:15:17.971Z,13.60
2019-05-21T02:17:49.187Z,13.50
2019-05-21T02:20:20.264Z,13.60
2019-05-21T02:22:50.460Z,13.50
2019-05-21T02:25:22.095Z,13.60
2019-05-21T02:27:52.842Z,13.60
2019-05-21T02:30:23.410Z,13.60
2019-05-21T02:32:53.536Z,13.60
2019-05-21T02:35:24.032Z,13.60
2019-05-21T02:37:54.163Z,13.60
2019-05-21T02:40:24.177Z,13.60
2019-05-21T02:42:54.206Z,13.60
2019-05-21T02:45:24.286Z,13.60
2019-05-21T02:47:54.367Z,13.60
2019-05-21T02:50:25.084Z,13.60
2019-05-21T02:52:55.823Z,13.70
2019-05-21T02:55:25.999Z,13.60
2019-05-21T02:57:56.476Z,13.60
2019-05-21T03:00:38.643Z,13.60
2019-05-21T03:03:08.113Z,13.70
2019-05-21T03:05:38.149Z,13.60
2019-05-21T03:08:08.630Z,13.60
2019-05-21T03:10:38.686Z,13.60
2019-05-21T03:13:08.776Z,13.60
2019-05-21T03:15:39.040Z,13.50
2019-05-21T03:18:10.342Z,13.50
2019-05-21T03:20:40.374Z,13.50
2019-05-21T03:23:10.398Z,13.50
2019-05-21T03:25:41.031Z,13.50
2019-05-21T03:28:11.308Z,13.50
2019-05-21T03:30:41.325Z,13.50
2019-05-21T03:33:12.685Z,13.50
2019-05-21T03:35:42.908Z,13.50
2019-05-21T03:38:12.959Z,13.50
2019-05-21T03:40:43.320Z,13.40
2019-05-21T03:43:13.835Z,13.40
2019-05-21T03:45:43.892Z,13.40
2019-05-21T03:48:14.195Z,13.40
2019-05-21T03:50:44.277Z,13.40
2019-05-21T03:53:15.765Z,13.50
2019-05-21T03:55:45.888Z,13.50
2019-05-21T03:58:15.972Z,13.40
2019-05-21T04:00:46.341Z,13.40
2019-05-21T04:03:16.469Z,13.40
2019-05-21T04:05:46.783Z,13.40
2019-05-21T04:08:16.878Z,13.40
2019-05-21T04:10:47.467Z,13.50
2019-05-21T04:13:17.691Z,13.40
2019-05-21T04:16:05.612Z,13.40
2019-05-21T04:18:54.674Z,13.30
2019-05-21T04:21:25.155Z,13.30
2019-05-21T04:23:55.189Z,13.30
2019-05-21T04:26:25.662Z,13.20
2019-05-21T04:28:55.732Z,13.20
2019-05-21T04:31:25.751Z,13.20
2019-05-21T04:33:55.911Z,13.20
2019-05-21T04:36:26.145Z,13.20
2019-05-21T04:38:56.628Z,13.30
2019-05-21T04:41:27.407Z,13.30
2019-05-21T04:43:58.537Z,13.30
2019-05-21T04:46:28.984Z,13.30
2019-05-21T04:49:00.613Z,13.30
2019-05-21T04:51:30.779Z,13.30
2019-05-21T04:54:02.035Z,13.30
2019-05-21T04:56:32.181Z,13.30
2019-05-21T04:59:02.639Z,13.30
2019-05-21T05:01:33.212Z,13.30
2019-05-21T05:04:03.782Z,13.30
2019-05-21T05:06:35.507Z,13.30
2019-05-21T05:09:06.945Z,13.30
2019-05-21T05:11:41.663Z,13.30
2019-05-21T05:14:12.031Z,13.60
2019-05-21T05:16:43.736Z,13.40
2019-05-21T05:19:14.681Z,13.40
2019-05-21T05:21:44.852Z,13.40
2019-05-21T05:24:17.473Z,13.40
2019-05-21T05:26:47.965Z,13.50
2019-05-21T05:29:18.322Z,13.50
2019-05-21T05:31:48.575Z,13.50
2019-05-21T05:34:20.322Z,13.60
2019-05-21T05:36:54.371Z,13.60
2019-05-21T05:39:24.575Z,13.60
2019-05-21T05:41:55.760Z,13.60
2019-05-21T05:44:25.967Z,13.60
2019-05-21T05:46:56.659Z,13.50
2019-05-21T05:49:32.297Z,13.50
2019-05-21T05:52:02.413Z,13.50
2019-05-21T05:54:33.141Z,13.50
2019-05-21T05:57:03.522Z,13.50
2019-05-21T05:59:34.086Z,13.50
2019-05-21T06:02:04.614Z,13.50
2019-05-21T06:04:36.818Z,13.60
2019-05-21T06:07:07.472Z,13.60
2019-05-21T06:09:39.840Z,13.70
2019-05-21T06:12:10.502Z,13.70
2019-05-21T06:14:40.802Z,13.80
2019-05-21T06:17:11.264Z,13.80
2019-05-21T06:19:42.534Z,13.80
2019-05-21T06:22:14.081Z,13.90
2019-05-21T06:24:44.850Z,13.90
2019-05-21T06:27:15.343Z,14.00
2019-05-21T06:29:45.699Z,14.10
2019-05-21T06:32:16.123Z,14.10
2019-05-21T06:34:48.759Z,14.20
2019-05-21T06:37:19.695Z,14.20
2019-05-21T06:39:49.733Z,14.20
2019-05-21T06:42:20.234Z,14.30
2019-05-21T06:44:50.845Z,14.30
2019-05-21T06:47:21.718Z,14.40
2019-05-21T06:49:52.532Z,14.00
2019-05-21T06:52:22.734Z,14.50
2019-05-21T06:54:54.378Z,14.50
2019-05-21T06:57:24.512Z,14.60
2019-05-21T06:59:55.715Z,14.60
2019-05-21T07:02:26.783Z,14.60
2019-05-21T07:04:58.638Z,14.60
2019-05-21T07:07:29.856Z,14.70
2019-05-21T07:10:00.025Z,14.70
2019-05-21T07:12:30.116Z,14.70
2019-05-21T07:15:00.923Z,14.70
2019-05-21T07:17:31.034Z,14.70
2019-05-21T07:20:01.643Z,14.70
2019-05-21T07:22:31.905Z,14.80
2019-05-21T07:25:02.318Z,14.80
2019-05-21T07:27:33.508Z,14.90
2019-05-21T07:30:06.732Z,15.00
2019-05-21T07:32:36.980Z,15.10
2019-05-21T07:35:07.954Z,15.10
2019-05-21T07:37:38.187Z,15.10
2019-05-21T07:40:10.209Z,15.10
2019-05-21T07:42:41.216Z,15.10
2019-05-21T07:45:11.646Z,15.20
2019-05-21T07:47:42.867Z,15.20
2019-05-21T07:50:13.783Z,15.20
2019-05-21T07:52:45.586Z,15.10
2019-05-21T07:55:17.600Z,15.10
2019-05-21T07:57:48.789Z,15.00
2019-05-21T08:00:20.559Z,15.00
2019-05-21T08:02:51.984Z,15.10
2019-05-21T08:05:22.084Z,15.10
2019-05-21T08:07:52.345Z,15.20
2019-05-21T08:10:22.470Z,15.40
2019-05-21T08:12:52.666Z,15.50
2019-05-21T08:15:22.665Z,15.70
2019-05-21T08:17:53.324Z,15.80
2019-05-21T08:20:25.818Z,15.90
2019-05-21T08:22:55.875Z,16.00
2019-05-21T08:25:27.475Z,16.20
2019-05-21T08:27:59.549Z,16.20
2019-05-21T08:30:32.257Z,16.10
2019-05-21T08:33:03.615Z,16.10
2019-05-21T08:35:34.027Z,16.10
2019-05-21T08:38:06.600Z,16.00
2019-05-21T08:40:39.660Z,16.10
2019-05-21T08:43:09.918Z,16.20
2019-05-21T08:45:40.531Z,16.40
2019-05-21T08:48:10.587Z,16.40
2019-05-21T08:50:41.493Z,16.50
2019-05-21T08:53:13.496Z,16.50
2019-05-21T08:55:43.599Z,16.50
2019-05-21T08:58:13.684Z,16.50
2019-05-21T09:00:45.521Z,16.40
2019-05-21T09:03:15.708Z,16.50
2019-05-21T09:05:46.315Z,16.50
2019-05-21T09:08:19.694Z,16.60
2019-05-21T09:10:49.974Z,16.60
2019-05-21T09:13:20.577Z,16.60
2019-05-21T09:15:50.908Z,16.70
2019-05-21T09:18:21.116Z,16.80
2019-05-21T09:20:52.903Z,16.90
2019-05-21T09:23:23.089Z,17.00
2019-05-21T09:25:53.463Z,17.00
2019-05-21T09:28:23.554Z,17.00
2019-05-21T09:30:53.953Z,17.00
2019-05-21T09:33:24.247Z,17.00
2019-05-21T09:35:55.444Z,16.90
2019-05-21T09:38:25.663Z,16.80
2019-05-21T09:40:56.333Z,16.60
2019-05-21T09:43:28.200Z,16.50
2019-05-21T09:45:58.814Z,16.40
2019-05-21T09:48:29.277Z,16.20
2019-05-21T09:51:00.155Z,16.10
2019-05-21T09:53:33.566Z,16.00
2019-05-21T09:56:22.933Z,15.80
2019-05-21T09:58:54.696Z,15.60
2019-05-21T10:01:31.399Z,15.50
2019-05-21T10:04:01.554Z,15.50
2019-05-21T10:06:32.037Z,15.40
2019-05-21T10:09:02.393Z,15.40
2019-05-21T10:11:34.452Z,15.30
2019-05-21T10:14:04.887Z,15.20
2019-05-21T10:16:36.377Z,15.10
2019-05-21T10:19:06.598Z,15.10
2019-05-21T10:21:37.853Z,15.10
2019-05-21T10:24:08.125Z,15.10
2019-05-21T10:26:40.598Z,15.10
2019-05-21T10:29:12.559Z,15.50
2019-05-21T10:31:44.216Z,14.80
2019-05-21T10:34:16.591Z,14.70
2019-05-21T10:36:48.159Z,14.60
2019-05-21T10:39:18.523Z,14.60
2019-05-21T10:41:49.285Z,14.70
2019-05-21T10:44:20.427Z,14.80
2019-05-21T10:46:51.056Z,14.80
2019-05-21T10:49:22.109Z,14.70
2019-05-21T10:51:53.206Z,14.70
2019-05-21T10:54:24.676Z,14.70
2019-05-21T10:56:55.947Z,14.70
2019-05-21T10:59:26.176Z,14.70
2019-05-21T11:02:16.486Z,14.70
2019-05-21T11:05:12.005Z,14.70
2019-05-21T11:07:42.879Z,14.70
2019-05-21T11:10:14.007Z,14.60
2019-05-21T11:12:44.435Z,14.70
2019-05-21T11:15:14.757Z,14.60
2019-05-21T11:17:53.687Z,14.80
2019-05-21T11:20:17.068Z,14.80
2019-05-21T11:22:47.426Z,14.80
2019-05-21T11:25:17.522Z,14.90
2019-05-21T11:27:47.830Z,14.80
2019-05-21T11:30:19.502Z,14.80
2019-05-21T11:32:49.952Z,15.00
2019-05-21T11:35:20.110Z,15.10
2019-05-21T11:37:50.294Z,15.30
2019-05-21T11:40:22.637Z,15.40
2019-05-21T11:42:53.452Z,15.50
2019-05-21T11:45:32.057Z,15.60
2019-05-21T11:47:56.197Z,15.50
2019-05-21T11:50:26.536Z,15.50
2019-05-21T11:52:57.779Z,15.60
2019-05-21T11:55:27.894Z,15.80
2019-05-21T11:57:57.974Z,15.90
2019-05-21T12:00:29.134Z,16.00
2019-05-21T12:03:01.411Z,15.90
2019-05-21T12:05:31.608Z,15.90
2019-05-21T12:08:03.126Z,16.00
2019-05-21T12:10:34.647Z,16.10
2019-05-21T12:13:05.695Z,16.20
2019-05-21T12:15:36.008Z,16.20
2019-05-21T12:18:06.157Z,16.20
2019-05-21T12:20:37.520Z,16.40
2019-05-21T12:23:08.308Z,16.50
2019-05-21T12:25:38.819Z,16.60
2019-05-21T12:28:11.411Z,16.70
2019-05-21T12:30:42.099Z,16.80
2019-05-21T12:33:12.535Z,16.80
2019-05-21T12:35:44.077Z,16.80
2019-05-21T12:38:14.190Z,16.80
2019-05-21T12:40:44.746Z,16.90
2019-05-21T12:43:14.863Z,16.90
2019-05-21T12:45:44.982Z,16.80
2019-05-21T12:48:15.350Z,16.70
2019-05-21T12:50:45.511Z,16.60
2019-05-21T12:53:17.820Z,16.50
2019-05-21T12:55:49.561Z,16.50
2019-05-21T12:58:20.236Z,16.60
2019-05-21T13:00:50.680Z,16.70
2019-05-21T13:03:20.881Z,16.70
2019-05-21T13:05:51.021Z,16.70
2019-05-21T13:08:21.649Z,16.80
2019-05-21T13:10:52.119Z,16.90
2019-05-21T13:13:22.717Z,16.90
2019-05-21T13:15:53.009Z,17.00
2019-05-21T13:18:24.456Z,17.20
2019-05-21T13:20:54.685Z,17.30
2019-05-21T13:23:25.323Z,17.50
2019-05-21T13:25:56.061Z,17.60
2019-05-21T13:28:26.236Z,17.70
2019-05-21T13:30:56.401Z,17.70
2019-05-21T13:33:26.839Z,17.80
2019-05-21T13:35:56.895Z,17.80
2019-05-21T13:38:27.487Z,17.80
2019-05-21T13:40:58.627Z,17.80
2019-05-21T13:43:28.721Z,17.80
2019-05-21T13:45:59.163Z,17.80
2019-05-21T13:48:32.660Z,17.80
2019-05-21T13:51:04.301Z,17.80
2019-05-21T13:53:35.065Z,17.80
2019-05-21T13:56:08.209Z,17.90
2019-05-21T13:58:38.986Z,17.80
2019-05-21T14:01:10.569Z,17.80
2019-05-21T14:03:41.203Z,17.90
2019-05-21T14:06:11.315Z,18.00
2019-05-21T14:08:41.389Z,18.20
2019-05-21T14:11:11.470Z,18.30
2019-05-21T14:13:41.934Z,18.40
2019-05-21T14:16:12.328Z,18.40
2019-05-21T14:18:42.486Z,18.50
2019-05-21T14:21:15.610Z,18.30
2019-05-21T14:23:45.739Z,18.30
2019-05-21T14:26:16.277Z,18.20
2019-05-21T14:28:46.548Z,18.10
2019-05-21T14:31:19.108Z,18.10
2019-05-21T14:33:49.475Z,18.00
2019-05-21T14:36:19.616Z,18.10
2019-05-21T14:38:49.895Z,18.10
2019-05-21T14:41:20.094Z,18.20
2019-05-21T14:43:50.532Z,18.20
2019-05-21T14:46:20.848Z,18.20
2019-05-21T14:48:51.136Z,18.20
2019-05-21T14:51:21.389Z,18.10
2019-05-21T14:53:53.711Z,18.10
2019-05-21T14:56:29.375Z,17.90
2019-05-21T14:59:01.181Z,17.90
2019-05-21T15:01:31.522Z,18.00
2019-05-21T15:04:02.492Z,17.70
2019-05-21T15:06:32.808Z,17.60
2019-05-21T15:09:04.371Z,17.50
2019-05-21T15:11:34.565Z,17.40
2019-05-21T15:14:06.355Z,17.30
2019-05-21T15:16:36.543Z,17.20
2019-05-21T15:19:07.789Z,17.10
2019-05-21T15:21:45.507Z,16.90
2019-05-21T15:24:17.164Z,17.20
2019-05-21T15:26:48.040Z,17.30
2019-05-21T15:29:18.162Z,17.30
2019-05-21T15:31:48.578Z,17.20
2019-05-21T15:34:18.930Z,17.20
2019-05-21T15:36:49.116Z,17.10
2019-05-21T15:39:20.024Z,17.10
2019-05-21T15:41:50.268Z,17.10
2019-05-21T15:44:21.839Z,17.10
2019-05-21T15:46:52.219Z,17.00
2019-05-21T15:49:35.653Z,16.90
2019-05-21T15:51:55.382Z,16.90
2019-05-21T15:54:26.810Z,16.90
2019-05-21T15:56:57.157Z,16.80
2019-05-21T15:59:28.606Z,16.80
2019-05-21T16:01:58.740Z,16.80
2019-05-21T16:04:29.461Z,17.10
2019-05-21T16:06:59.964Z,16.70
2019-05-21T16:09:30.824Z,16.70
2019-05-21T16:12:00.976Z,16.80
2019-05-21T16:14:31.387Z,16.70
2019-05-21T16:17:01.888Z,16.70
2019-05-21T16:19:32.502Z,16.70
2019-05-21T16:22:02.667Z,16.70
2019-05-21T16:24:34.835Z,16.60
2019-05-21T16:27:05.418Z,16.60
2019-05-21T16:29:36.718Z,16.60
2019-05-21T16:32:09.668Z,16.70
2019-05-21T16:34:41.529Z,16.70
2019-05-21T16:37:11.768Z,16.60
2019-05-21T16:39:42.310Z,16.70
2019-05-21T16:42:12.435Z,16.70
2019-05-21T16:44:42.884Z,16.70
2019-05-21T16:47:13.289Z,16.70
2019-05-21T16:49:43.582Z,16.60
2019-05-21T16:52:14.110Z,16.60
2019-05-21T16:54:44.547Z,16.50
2019-05-21T16:57:14.842Z,16.40
2019-05-21T16:59:44.959Z,16.40
2019-05-21T17:02:15.408Z,16.40
2019-05-21T17:04:45.523Z,16.40
2019-05-21T17:07:15.892Z,16.40
2019-05-21T17:09:46.040Z,16.30
2019-05-21T17:12:16.739Z,16.30
2019-05-21T17:14:49.942Z,16.20
2019-05-21T17:17:20.730Z,16.20
2019-05-21T17:19:51.694Z,16.20
2019-05-21T17:22:21.853Z,16.20
2019-05-21T17:24:55.892Z,16.20
2019-05-21T17:27:26.135Z,16.20
2019-05-21T17:29:56.595Z,16.20
2019-05-21T17:32:26.775Z,16.20
2019-05-21T17:34:58.354Z,16.20
2019-05-21T17:37:28.499Z,16.20
2019-05-21T17:39:58.948Z,16.20
2019-05-21T17:42:29.115Z,16.20
2019-05-21T17:44:59.827Z,16.20
2019-05-21T17:47:32.832Z,16.20
2019-05-21T17:50:03.692Z,16.20
2019-05-21T17:52:34.306Z,16.20
2019-05-21T17:55:05.241Z,16.20
2019-05-21T17:57:37.975Z,16.10
2019-05-21T18:00:09.941Z,16.10
2019-05-21T18:02:40.819Z,16.10
2019-05-21T18:05:12.138Z,16.10
2019-05-21T18:07:44.039Z,16.00
2019-05-21T18:10:15.263Z,16.00
2019-05-21T18:12:45.590Z,16.00
2019-05-21T18:15:19.062Z,15.90
2019-05-21T18:17:49.514Z,15.90
2019-05-21T18:20:21.224Z,15.90
2019-05-21T18:22:54.032Z,15.90
2019-05-21T18:25:24.326Z,15.90
2019-05-21T18:27:54.934Z,15.90
2019-05-21T18:30:25.433Z,15.90
2019-05-21T18:32:56.907Z,15.90
2019-05-21T18:35:27.138Z,15.90
2019-05-21T18:37:57.560Z,15.90
2019-05-21T18:40:27.917Z,15.80
2019-05-21T18:42:58.413Z,15.80
2019-05-21T18:45:28.896Z,15.80
2019-05-21T18:47:59.160Z,15.80
2019-05-21T18:50:36.021Z,15.80
2019-05-21T18:53:01.229Z,15.80
2019-05-21T18:55:31.633Z,15.70
2019-05-21T18:58:02.074Z,15.70
2019-05-21T19:00:34.260Z,15.70
2019-05-21T19:03:04.494Z,15.60
2019-05-21T19:05:35.018Z,15.60
2019-05-21T19:08:05.523Z,15.60
2019-05-21T19:10:36.962Z,15.50
2019-05-21T19:13:07.387Z,15.50
2019-05-21T19:15:37.695Z,15.50
2019-05-21T19:18:07.855Z,15.50
2019-05-21T19:20:37.973Z,15.40
2019-05-21T19:23:08.342Z,15.40
2019-05-21T19:25:38.636Z,15.40
2019-05-21T19:28:08.802Z,15.40
2019-05-21T19:30:39.670Z,15.40
2019-05-21T19:33:10.002Z,15.30
2019-05-21T19:35:42.214Z,15.30
2019-05-21T19:38:12.626Z,15.30
2019-05-21T19:40:42.956Z,15.30
2019-05-21T19:43:13.161Z,15.30
2019-05-21T19:45:43.817Z,15.30
2019-05-21T19:48:13.990Z,15.30
2019-05-21T19:50:44.704Z,15.30
2019-05-21T19:53:14.739Z,15.30
2019-05-21T19:55:45.214Z,15.30
2019-05-21T19:58:15.345Z,15.20
2019-05-21T20:00:54.616Z,15.30
2019-05-21T20:03:25.372Z,15.20
2019-05-21T20:05:56.171Z,15.20
2019-05-21T20:08:28.416Z,15.20
2019-05-21T20:10:59.313Z,15.20
2019-05-21T20:13:32.542Z,15.20
2019-05-21T20:16:02.950Z,15.20
2019-05-21T20:18:33.914Z,15.20
2019-05-21T20:21:08.135Z,15.20
2019-05-21T20:23:38.665Z,15.20
2019-05-21T20:26:13.055Z,15.20
2019-05-21T20:28:43.550Z,14.70
2019-05-21T20:31:15.370Z,15.20
2019-05-21T20:33:49.068Z,15.20
2019-05-21T20:36:19.639Z,15.20
2019-05-21T20:38:50.752Z,15.20
2019-05-21T20:41:22.758Z,15.20
2019-05-21T20:43:59.101Z,15.20
2019-05-21T20:46:25.636Z,15.20
2019-05-21T20:52:31.160Z,15.20
2019-05-21T20:55:01.908Z,15.10
2019-05-21T20:57:35.606Z,15.10
2019-05-21T21:00:06.469Z,15.10
2019-05-21T21:02:38.607Z,15.10
2019-05-21T21:05:08.843Z,15.10
2019-05-21T21:07:39.531Z,15.10
2019-05-21T21:10:11.860Z,15.00
2019-05-21T21:12:43.478Z,15.00
2019-05-21T21:15:13.977Z,15.00
2019-05-21T21:17:44.558Z,15.00
2019-05-21T21:20:15.028Z,15.10
2019-05-21T21:22:45.774Z,15.00
2019-05-21T21:25:21.012Z,15.10
2019-05-21T21:27:51.382Z,15.00
2019-05-21T21:30:21.437Z,15.00
2019-05-21T21:32:51.644Z,15.00
2019-05-21T21:35:23.282Z,15.10
2019-05-21T21:37:53.622Z,15.00
2019-05-21T21:40:23.672Z,15.00
2019-05-21T21:42:54.263Z,15.00
2019-05-21T21:45:24.402Z,15.00
2019-05-21T21:47:55.455Z,15.00
2019-05-21T21:50:28.116Z,14.90
2019-05-21T21:52:58.871Z,14.90
2019-05-21T21:55:31.970Z,14.90
2019-05-21T21:58:01.813Z,14.90
2019-05-21T22:01:37.592Z,14.90
2019-05-21T22:04:09.758Z,14.80
2019-05-21T22:06:43.171Z,14.80
2019-05-21T22:09:29.052Z,14.80
2019-05-21T22:12:00.140Z,14.90
2019-05-21T22:14:31.133Z,14.90
2019-05-21T22:17:01.996Z,14.90
2019-05-21T22:19:32.606Z,14.90
2019-05-21T22:22:04.866Z,14.90
2019-05-21T22:24:36.309Z,14.90
2019-05-21T22:27:07.521Z,14.90
2019-05-21T22:29:38.257Z,14.90
2019-05-21T22:32:08.819Z,14.90
2019-05-21T22:34:40.748Z,14.90
2019-05-21T22:37:14.841Z,14.90
2019-05-21T22:39:47.909Z,14.90
2019-05-21T22:42:18.426Z,14.90
2019-05-21T22:44:49.295Z,14.90
2019-05-21T22:47:19.834Z,15.00
2019-05-21T22:49:49.983Z,15.00
2019-05-21T22:52:20.420Z,15.00
2019-05-21T22:54:50.795Z,15.00
2019-05-21T22:57:20.890Z,14.90
2019-05-21T22:59:52.468Z,14.90
2019-05-21T23:02:26.731Z,14.80
2019-05-21T23:04:57.639Z,14.90
2019-05-21T23:07:27.755Z,14.90
2019-05-21T23:09:58.522Z,14.80
2019-05-21T23:12:29.456Z,14.80
2019-05-21T23:14:59.808Z,14.80
2019-05-21T23:17:31.619Z,14.90
2019-05-21T23:20:04.958Z,14.90
2019-05-21T23:22:36.931Z,14.80
2019-05-21T23:25:07.910Z,14.80
2019-05-21T23:27:38.872Z,14.80
2019-05-21T23:30:11.926Z,14.80
2019-05-21T23:32:41.994Z,14.70
2019-05-21T23:35:14.325Z,14.70
2019-05-21T23:37:46.803Z,14.70
2019-05-21T23:40:18.218Z,14.70
2019-05-21T23:42:48.328Z,14.80
2019-05-21T23:45:19.600Z,14.80
2019-05-21T23:47:49.921Z,14.90
2019-05-21T23:50:21.269Z,14.90
2019-05-21T23:52:52.480Z,14.90
2019-05-21T23:55:23.884Z,14.90
2019-05-21T23:57:56.048Z,14.90
